Time;durP1;ratioP1;P1;durP2;ratioP2;P2;SDS_P1;SDS_P2;PMS_P1;PMS_P2;Temp;Humidity;BMP_temperature;BMP_pressure;BME280_temperature;BME280_humidity;BME280_pressure;Samples;Min_cycle;Max_cycle;Signal;HPM_P1;HPM_P2
2021/11/30 00:01:58;;;;;;;11.45;7.83;;;;;;;2.24;97.12;99009.58;1612352;86;26085;-81
2021/11/30 00:04:29;;;;;;;11.88;7.95;;;;;;;2.23;97.18;99014.52;1567345;88;25876;-81
2021/11/30 00:06:53;;;;;;;10.80;8.48;;;;;;;2.24;96.99;99016.18;1603488;87;27608;-80
2021/11/30 00:12:13;;;;;;;11.48;6.95;;;;;;;2.24;96.65;99025.91;1593555;88;26561;-81
2021/11/30 00:14:44;;;;;;;11.73;7.10;;;;;;;2.25;96.64;99033.66;1574404;89;26000;-81
2021/11/30 00:17:12;;;;;;;10.30;7.12;;;;;;;2.25;96.58;99032.34;1603977;87;32644;-81
2021/11/30 00:19:40;;;;;;;10.13;6.22;;;;;;;2.26;96.54;99037.96;1594153;86;27471;-81
2021/11/30 00:22:10;;;;;;;11.45;7.35;;;;;;;2.25;96.07;99036.30;1571728;88;25403;-82
2021/11/30 00:24:38;;;;;;;8.80;6.40;;;;;;;2.22;96.00;99047.72;1596217;88;25983;-81
2021/11/30 00:27:06;;;;;;;10.80;6.67;;;;;;;2.23;96.08;99048.86;1613750;86;26767;-81
2021/11/30 00:29:34;;;;;;;7.65;5.62;;;;;;;2.24;96.08;99053.66;1566324;89;25894;-80
2021/11/30 00:32:03;;;;;;;10.90;7.25;;;;;;;2.22;95.76;99060.41;1572442;86;28320;-81
2021/11/30 00:34:31;;;;;;;8.75;5.20;;;;;;;2.23;95.92;99064.70;1621367;86;26586;-80
2021/11/30 00:36:59;;;;;;;9.18;6.17;;;;;;;2.26;95.60;99068.83;1605666;87;25403;-81
2021/11/30 00:39:26;;;;;;;10.88;6.47;;;;;;;2.24;95.58;99080.06;1558250;87;26839;-81
2021/11/30 00:41:56;;;;;;;10.53;5.97;;;;;;;2.23;95.38;99076.59;1589282;88;25817;-81
2021/11/30 00:44:26;;;;;;;11.18;6.25;;;;;;;2.22;95.47;99084.70;1580316;88;27460;-81
2021/11/30 00:46:54;;;;;;;8.23;6.33;;;;;;;2.23;95.46;99091.12;1604154;87;25408;-80
2021/11/30 00:49:21;;;;;;;9.23;5.92;;;;;;;2.23;95.28;99096.89;1569859;88;25881;-82
2021/11/30 00:51:51;;;;;;;10.30;5.65;;;;;;;2.21;95.13;99105.00;1570494;88;26912;-80
2021/11/30 00:54:20;;;;;;;8.60;5.28;;;;;;;2.18;94.91;99104.01;1566966;88;26646;-82
2021/11/30 00:56:49;;;;;;;9.18;4.85;;;;;;;2.16;94.57;99113.12;1618519;86;27091;-80
2021/11/30 00:59:17;;;;;;;6.95;4.92;;;;;;;2.16;94.48;99114.44;1610567;86;25380;-81
2021/11/30 01:01:45;;;;;;;6.47;5.15;;;;;;;2.14;94.21;99115.91;1575775;89;25874;-80
2021/11/30 01:04:12;;;;;;;6.20;4.80;;;;;;;2.13;94.39;99112.13;1564067;88;26105;-81
2021/11/30 01:06:40;;;;;;;7.62;5.33;;;;;;;2.12;94.36;99111.78;1614897;86;25865;-81
2021/11/30 01:09:08;;;;;;;6.78;4.25;;;;;;;2.12;94.23;99113.94;1573808;87;28313;-80
2021/11/30 01:11:37;;;;;;;6.70;5.20;;;;;;;2.10;94.13;99115.92;1586710;88;26825;-80
2021/11/30 01:14:06;;;;;;;9.23;5.22;;;;;;;2.11;94.24;99114.95;1596748;87;25827;-81
2021/11/30 01:16:34;;;;;;;7.37;4.80;;;;;;;2.10;94.02;99117.73;1618859;87;26539;-81
2021/11/30 01:19:03;;;;;;;7.42;4.72;;;;;;;2.09;93.79;99111.66;1594237;87;26044;-80
2021/11/30 01:21:32;;;;;;;8.43;4.55;;;;;;;2.08;93.42;99123.68;1598223;87;27683;-81
2021/11/30 01:23:59;;;;;;;7.95;4.87;;;;;;;2.08;93.63;99126.32;1591505;87;26615;-81
2021/11/30 01:26:26;;;;;;;7.20;4.40;;;;;;;2.07;93.80;99133.45;1623669;87;25942;-81
2021/11/30 01:28:53;;;;;;;6.87;4.90;;;;;;;2.06;93.34;99133.10;1578700;88;26173;-81
2021/11/30 01:31:21;;;;;;;5.28;4.22;;;;;;;2.05;93.56;99134.59;1591215;87;25898;-81
2021/11/30 01:33:48;;;;;;;8.68;4.80;;;;;;;2.02;92.78;99129.16;1593777;88;28353;-80
2021/11/30 01:36:15;;;;;;;8.70;4.00;;;;;;;1.99;92.51;99130.00;1587884;88;26640;-80
2021/11/30 01:38:42;;;;;;;5.50;3.65;;;;;;;1.98;92.80;99130.98;1581914;88;25861;-81
2021/11/30 01:41:10;;;;;;;6.92;4.72;;;;;;;1.96;92.49;99129.83;1577871;88;26110;-80
2021/11/30 01:43:42;;;;;;;5.87;4.08;;;;;;;1.94;92.85;99133.63;1601174;88;26054;-80
2021/11/30 01:46:26;;;;;;;6.40;3.98;;;;;;;1.95;92.38;99132.62;1600001;87;27442;-81
2021/11/30 01:51:30;;;;;;;7.12;4.22;;;;;;;1.93;92.77;99143.36;1591191;88;26780;-80
2021/11/30 01:53:58;;;;;;;5.15;3.83;;;;;;;1.92;92.51;99140.41;1570373;88;26723;-81
2021/11/30 01:56:25;;;;;;;6.50;3.90;;;;;;;1.93;92.58;99140.72;1580575;87;25885;-81
2021/11/30 01:58:53;;;;;;;7.55;4.22;;;;;;;1.93;92.61;99155.72;1633640;86;27458;-80
2021/11/30 02:01:21;;;;;;;6.65;4.30;;;;;;;1.94;92.95;99148.98;1614929;86;25844;-80
2021/11/30 02:03:49;;;;;;;6.17;4.70;;;;;;;1.97;92.95;99157.03;1598525;87;25402;-81
2021/11/30 02:06:16;;;;;;;6.55;4.33;;;;;;;1.97;92.65;99151.75;1571579;89;26171;-81
2021/11/30 02:08:43;;;;;;;10.08;4.00;;;;;;;1.95;92.68;99159.85;1581089;89;25940;-81
2021/11/30 02:11:10;;;;;;;9.75;4.85;;;;;;;1.93;92.09;99159.69;1591185;88;27479;-81
2021/11/30 02:13:37;;;;;;;5.95;4.05;;;;;;;1.91;92.48;99162.98;1608326;87;26051;-81
2021/11/30 02:16:07;;;;;;;5.90;4.42;;;;;;;1.93;92.58;99168.92;1567173;88;25914;-82
2021/11/30 02:18:40;;;;;;;5.65;4.20;;;;;;;1.91;92.31;99161.18;1596161;86;26144;-81
2021/11/30 02:21:04;;;;;;;4.67;3.70;;;;;;;1.91;92.40;99167.78;1589771;88;26144;-81
2021/11/30 02:26:17;;;;;;;5.92;4.20;;;;;;;1.92;92.18;99164.66;1576544;87;26042;-81
2021/11/30 02:28:50;;;;;;;4.90;3.85;;;;;;;1.87;92.13;99163.83;1569823;88;25882;-80
2021/11/30 02:31:20;;;;;;;5.42;4.08;;;;;;;1.85;92.11;99156.57;1595519;88;26797;-80
2021/11/30 02:33:48;;;;;;;7.83;3.60;;;;;;;1.83;92.10;99161.20;1583237;89;25969;-80
2021/11/30 02:36:31;;;;;;;7.60;4.17;;;;;;;1.82;92.05;99163.48;1578590;88;26925;-81
2021/11/30 02:39:01;;;;;;;8.43;4.05;;;;;;;1.80;92.06;99166.80;1573927;88;26564;-81
2021/11/30 02:41:28;;;;;;;5.17;3.67;;;;;;;1.77;92.19;99167.63;1547216;88;25778;-80
2021/11/30 02:43:58;;;;;;;7.60;3.72;;;;;;;1.77;92.20;99167.63;1570510;88;26159;-80
2021/11/30 02:46:51;;;;;;;6.08;4.25;;;;;;;1.76;91.91;99168.13;1575335;89;25897;-80
2021/11/30 02:49:22;;;;;;;6.83;4.25;;;;;;;1.76;92.08;99168.61;1582305;89;27504;-81
2021/11/30 02:51:51;;;;;;;;;;;;;;;1.73;91.93;99173.75;1547837;88;25913;-81
2021/11/30 02:54:22;;;;;;;6.62;3.75;;;;;;;1.72;91.97;99174.72;1574147;89;26083;-81
2021/11/30 02:56:53;;;;;;;;;;;;;;;1.70;92.01;99182.47;1616428;86;26598;-81
2021/11/30 02:59:22;;;;;;;;;;;;;;;1.68;91.93;99179.17;1584374;88;25368;-81
2021/11/30 03:02:03;;;;;;;5.42;3.00;;;;;;;1.67;92.10;99181.50;1613747;86;27562;-81
2021/11/30 03:04:31;;;;;;;4.58;3.58;;;;;;;1.64;91.74;99183.97;1591266;86;26032;-81
2021/11/30 03:06:59;;;;;;;4.65;3.62;;;;;;;1.63;91.75;99192.86;1584491;88;25949;-81
2021/11/30 03:09:26;;;;;;;5.65;3.58;;;;;;;1.62;91.74;99189.91;1596784;88;26158;-81
2021/11/30 03:11:55;;;;;;;5.65;3.75;;;;;;;1.63;91.80;99195.98;1608183;88;25930;-81
2021/11/30 03:14:22;;;;;;;5.33;3.70;;;;;;;1.62;91.70;99204.42;1592454;86;28302;-81
2021/11/30 03:16:50;;;;;;;6.30;3.70;;;;;;;1.62;91.75;99207.06;1588815;86;25884;-80
2021/11/30 03:19:18;;;;;;;5.90;4.55;;;;;;;1.61;91.53;99208.03;1565127;88;25434;-81
2021/11/30 03:21:47;;;;;;;4.67;2.90;;;;;;;1.60;91.75;99205.08;1603717;87;26117;-80
2021/11/30 03:24:15;;;;;;;5.20;3.83;;;;;;;1.60;91.14;99206.89;1566974;88;25938;-80
2021/11/30 03:26:42;;;;;;;5.53;3.90;;;;;;;1.60;91.45;99214.31;1571480;89;26941;-81
2021/11/30 03:29:09;;;;;;;6.35;3.52;;;;;;;1.60;90.73;99213.00;1572541;88;25909;-81
2021/11/30 03:31:48;;;;;;;5.08;3.45;;;;;;;1.58;91.09;99207.86;1575722;86;25996;-80
2021/11/30 03:34:10;;;;;;;4.83;3.35;;;;;;;1.60;90.92;99211.68;1589250;88;26895;-80
2021/11/30 03:36:39;;;;;;;7.25;3.80;;;;;;;1.60;90.37;99213.00;1590200;88;26446;-81
2021/11/30 03:39:10;;;;;;;4.90;3.95;;;;;;;1.58;90.30;99210.19;1554158;89;27495;-80
2021/11/30 03:41:38;;;;;;;5.78;3.20;;;;;;;1.58;90.87;99205.22;1585416;87;26066;-81
2021/11/30 03:44:07;;;;;;;5.50;3.30;;;;;;;1.63;90.29;99217.09;1615829;86;25872;-81
2021/11/30 03:46:36;;;;;;;6.33;2.80;;;;;;;1.60;89.25;99206.89;1608256;87;25892;-82
2021/11/30 03:49:07;;;;;;;4.53;3.45;;;;;;;1.56;89.20;99206.41;1568774;88;25959;-81
2021/11/30 03:51:35;;;;;;;4.45;3.80;;;;;;;1.54;89.86;99208.34;1571733;86;28249;-80
2021/11/30 03:54:05;;;;;;;4.35;3.60;;;;;;;1.54;89.77;99200.43;1595530;86;26039;-81
2021/11/30 03:56:33;;;;;;;5.92;3.58;;;;;;;1.55;89.95;99203.41;1579975;88;25589;-80
2021/11/30 03:59:00;;;;;;;4.35;2.80;;;;;;;1.53;89.65;99205.39;1580468;87;26074;-81
2021/11/30 04:01:27;;;;;;;4.37;3.30;;;;;;;1.51;89.53;99206.05;1580007;87;26790;-80
2021/11/30 04:03:56;;;;;;;3.95;2.77;;;;;;;1.49;89.58;99210.19;1586241;88;28153;-81
2021/11/30 04:06:24;;;;;;;8.95;3.83;;;;;;;1.49;89.74;99215.95;1609928;87;26499;-82
2021/11/30 04:08:51;;;;;;;5.42;3.70;;;;;;;1.49;89.90;99213.31;1553988;88;26064;-82
2021/11/30 04:11:21;;;;;;;5.45;3.55;;;;;;;1.48;90.00;99220.88;1570165;88;26782;-81
2021/11/30 04:13:48;;;;;;;5.53;4.05;;;;;;;1.48;90.07;99218.23;1620771;86;26547;-81
2021/11/30 04:16:16;;;;;;;5.53;4.37;;;;;;;1.45;90.00;99223.34;1579454;87;27367;-81
2021/11/30 04:18:43;;;;;;;6.47;4.58;;;;;;;1.43;89.88;99225.84;1582141;86;25953;-81
2021/11/30 04:21:10;;;;;;;8.50;4.75;;;;;;;1.42;90.19;99222.37;1607099;87;26161;-81
2021/11/30 04:23:37;;;;;;;6.00;4.90;;;;;;;1.43;90.19;99218.72;1618323;87;26260;-81
2021/11/30 04:26:04;;;;;;;5.53;4.35;;;;;;;1.44;90.30;99219.55;1589361;87;25835;-80
2021/11/30 04:28:32;;;;;;;5.62;4.65;;;;;;;1.42;90.14;99215.77;1577434;88;27634;-83
2021/11/30 04:30:59;;;;;;;6.25;4.62;;;;;;;1.41;90.31;99222.02;1585646;87;25938;-80
2021/11/30 04:33:27;;;;;;;7.10;4.70;;;;;;;1.40;90.25;99223.51;1616592;86;25353;-80
2021/11/30 04:35:54;;;;;;;7.25;5.30;;;;;;;1.38;90.05;99227.64;1580295;86;26014;-80
2021/11/30 04:38:21;;;;;;;4.40;3.65;;;;;;;1.34;89.98;99222.36;1581995;86;25741;-80
2021/11/30 04:40:48;;;;;;;7.30;4.67;;;;;;;1.32;89.92;99228.29;1615382;86;27486;-81
2021/11/30 04:43:15;;;;;;;5.33;4.05;;;;;;;1.29;89.96;99223.32;1613408;86;26207;-81
2021/11/30 04:45:57;;;;;;;5.28;4.05;;;;;;;1.27;89.80;99225.78;1586137;87;26033;-81
2021/11/30 04:48:23;;;;;;;8.05;4.75;;;;;;;1.23;89.98;99221.83;1539636;89;44276;-81
2021/11/30 04:50:53;;;;;;;6.35;4.55;;;;;;;1.20;89.93;99227.41;1596583;86;26298;-81
2021/11/30 04:53:21;;;;;;;8.45;4.95;;;;;;;1.18;89.96;99218.34;1585200;87;27234;-79
2021/11/30 04:55:52;;;;;;;5.87;4.65;;;;;;;1.16;89.98;99224.27;1614500;86;26047;-81
2021/11/30 04:58:19;;;;;;;;;;;;;;;1.14;89.94;99231.52;1550363;88;25953;-81
2021/11/30 05:00:47;;;;;;;5.90;4.72;;;;;;;1.15;89.97;99230.55;1594126;86;26780;-82
2021/11/30 05:03:14;;;;;;;7.67;5.08;;;;;;;1.10;90.00;99224.92;1598311;86;25415;-81
2021/11/30 05:05:41;;;;;;;7.55;5.20;;;;;;;1.09;89.98;99227.20;1618557;86;27529;-81
2021/11/30 05:08:09;;;;;;;6.55;5.37;;;;;;;1.09;89.99;99226.41;1564761;87;25894;-82
2021/11/30 05:10:36;;;;;;;7.10;5.08;;;;;;;1.07;89.84;99227.06;1617321;87;25458;-81
2021/11/30 05:13:03;;;;;;;8.23;4.78;;;;;;;1.06;90.05;99226.72;1617858;86;26189;-82
2021/11/30 05:15:30;;;;;;;9.38;5.80;;;;;;;1.05;90.09;99229.84;1588245;88;25828;-81
2021/11/30 05:17:57;;;;;;;6.55;5.42;;;;;;;1.06;90.01;99226.72;1527475;88;28195;-81
2021/11/30 05:20:25;;;;;;;6.17;4.87;;;;;;;1.05;89.96;99225.88;1591278;88;25985;-80
2021/11/30 05:22:53;;;;;;;9.50;5.62;;;;;;;1.03;89.94;99223.90;1618491;86;25811;-81
2021/11/30 05:25:23;;;;;;;8.33;5.20;;;;;;;1.01;90.03;99225.88;1574403;88;26645;-81
2021/11/30 05:27:51;;;;;;;7.42;5.53;;;;;;;1.01;90.04;99232.46;1587490;88;26067;-81
2021/11/30 05:30:20;;;;;;;6.37;5.25;;;;;;;1.01;90.10;99227.19;1589881;88;27502;-80
2021/11/30 05:32:49;;;;;;;6.22;5.37;;;;;;;1.00;90.14;99230.83;1610762;86;26622;-80
2021/11/30 05:35:17;;;;;;;8.00;5.53;;;;;;;1.02;90.12;99231.98;1582859;87;25927;-81
2021/11/30 05:37:45;;;;;;;7.67;5.00;;;;;;;1.02;90.21;99230.66;1576579;87;26144;-81
2021/11/30 05:40:12;;;;;;;6.60;5.15;;;;;;;1.04;90.22;99231.33;1618024;86;26610;-80
2021/11/30 05:42:40;;;;;;;8.13;6.03;;;;;;;1.05;90.21;99229.84;1584394;88;27562;-80
2021/11/30 05:45:08;;;;;;;7.25;5.78;;;;;;;1.05;90.07;99225.88;1551448;89;25911;-81
2021/11/30 05:47:35;;;;;;;7.85;5.65;;;;;;;1.07;90.14;99225.75;1594735;88;25967;-81
2021/11/30 05:50:02;;;;;;;8.85;6.10;;;;;;;1.07;90.01;99230.50;1602465;87;26077;-80
2021/11/30 05:52:29;;;;;;;10.88;7.00;;;;;;;1.07;89.96;99228.38;1616537;87;25904;-80
2021/11/30 05:54:56;;;;;;;11.35;7.72;;;;;;;1.05;89.74;99229.03;1569890;88;27634;-81
2021/11/30 05:57:23;;;;;;;12.00;7.33;;;;;;;1.03;89.86;99234.93;1569133;86;26014;-80
2021/11/30 05:59:51;;;;;;;12.45;7.25;;;;;;;1.02;90.03;99234.13;1609966;87;25992;-82
2021/11/30 06:02:21;;;;;;;13.35;7.40;;;;;;;1.03;90.19;99228.34;1624970;86;26749;-83
2021/11/30 06:04:49;;;;;;;13.45;8.10;;;;;;;1.03;90.14;99228.34;1562534;88;26290;-80
2021/11/30 06:07:16;;;;;;;15.13;8.25;;;;;;;1.03;90.23;99230.97;1545324;88;27396;-80
2021/11/30 06:09:43;;;;;;;11.90;7.87;;;;;;;1.03;90.36;99232.30;1622388;86;25932;-84
2021/11/30 06:12:12;;;;;;;12.73;8.15;;;;;;;1.04;90.44;99226.88;1608143;87;26000;-84
2021/11/30 06:14:39;;;;;;;12.63;8.20;;;;;;;1.04;90.42;99230.84;1581512;87;26867;-83
2021/11/30 06:17:06;;;;;;;13.85;7.83;;;;;;;1.04;90.50;99227.38;1599568;87;25891;-83
2021/11/30 06:19:35;;;;;;;10.63;7.60;;;;;;;1.05;90.60;99229.03;1583400;88;27620;-83
2021/11/30 06:22:02;;;;;;;11.33;8.15;;;;;;;1.04;90.63;99227.38;1606658;87;26052;-84
2021/11/30 06:24:29;;;;;;;13.25;9.13;;;;;;;1.02;90.83;99227.54;1570597;86;25917;-84
2021/11/30 06:26:56;;;;;;;15.63;9.40;;;;;;;1.05;90.89;99229.84;1590357;86;26736;-82
2021/11/30 06:29:23;;;;;;;19.07;10.13;;;;;;;1.05;90.84;99229.84;1616217;86;26127;-84
2021/11/30 06:31:51;;;;;;;13.10;8.48;;;;;;;1.08;91.07;99236.13;1607000;87;27676;-83
2021/11/30 06:34:18;;;;;;;14.95;8.98;;;;;;;1.11;91.10;99240.25;1555493;88;25948;-83
2021/11/30 06:36:45;;;;;;;13.60;8.50;;;;;;;1.10;91.16;99235.47;1580290;87;25905;-83
2021/11/30 06:39:12;;;;;;;14.95;8.65;;;;;;;1.12;91.15;99236.62;1604886;87;26229;-82
2021/11/30 06:41:39;;;;;;;18.82;8.53;;;;;;;1.11;91.29;99230.52;1594095;88;25566;-83
2021/11/30 06:44:07;;;;;;;15.50;9.85;;;;;;;1.12;91.36;99233.49;1571583;88;27644;-84
2021/11/30 06:46:34;;;;;;;21.70;11.73;;;;;;;1.11;91.39;99227.88;1536704;89;26303;-83
2021/11/30 06:49:01;;;;;;;21.02;11.20;;;;;;;1.15;91.61;99229.72;1618432;87;25977;-84
2021/11/30 06:51:28;;;;;;;15.75;9.73;;;;;;;1.17;91.66;99227.26;1614602;86;26080;-83
2021/11/30 06:53:55;;;;;;;15.43;10.10;;;;;;;1.18;91.49;99222.78;1585801;88;25876;-82
2021/11/30 06:56:22;;;;;;;16.82;10.20;;;;;;;1.21;91.59;99222.48;1560859;88;26997;-85
2021/11/30 06:58:49;;;;;;;19.87;11.80;;;;;;;1.22;91.59;99218.35;1580535;90;25768;-83
2021/11/30 07:01:16;;;;;;;22.22;12.63;;;;;;;1.24;91.62;99215.06;1578868;90;25821;-83
2021/11/30 07:03:44;;;;;;;36.10;18.92;;;;;;;1.25;91.50;99215.89;1538313;88;26082;-82
2021/11/30 07:06:20;;;;;;;28.27;16.45;;;;;;;1.27;91.62;99213.43;1572942;89;26032;-83
2021/11/30 07:08:55;;;;;;;19.15;12.28;;;;;;;1.27;91.57;99209.47;1595227;88;27614;-83
2021/11/30 07:11:33;;;;;;;16.35;10.08;;;;;;;1.29;91.57;99207.98;1578430;90;25832;-82
2021/11/30 07:13:50;;;;;;;17.98;10.63;;;;;;;1.28;91.63;99208.47;1536363;88;26637;-84
2021/11/30 07:16:17;;;;;;;19.37;12.15;;;;;;;1.29;91.65;99203.54;1542132;87;26078;-83
2021/11/30 07:18:44;;;;;;;17.90;12.33;;;;;;;1.30;91.74;99195.97;1579570;87;25905;-83
2021/11/30 07:21:11;;;;;;;18.60;12.75;;;;;;;1.30;91.76;99199.93;1601123;87;28276;-80
2021/11/30 07:23:39;;;;;;;22.70;12.65;;;;;;;1.32;91.78;99195.31;1569643;89;25897;-81
2021/11/30 07:26:06;;;;;;;16.93;11.28;;;;;;;1.32;91.85;99195.31;1560455;87;26591;-81
2021/11/30 07:28:33;;;;;;;18.35;11.83;;;;;;;1.31;91.88;99188.86;1617957;86;26139;-80
2021/11/30 07:31:09;;;;;;;17.60;11.18;;;;;;;1.30;91.97;99183.27;1622684;87;26617;-81
2021/11/30 07:33:38;;;;;;;17.98;11.40;;;;;;;1.28;92.02;99178.14;1595195;87;27565;-80
2021/11/30 07:36:08;;;;;;;19.87;11.28;;;;;;;1.26;92.08;99181.43;1590589;87;25914;-81
2021/11/30 07:38:36;;;;;;;17.60;11.93;;;;;;;1.27;92.23;99173.03;1614577;87;25965;-80
2021/11/30 07:41:04;;;;;;;20.08;12.10;;;;;;;1.30;92.30;99176.67;1623359;87;26121;-81
2021/11/30 07:43:33;;;;;;;16.17;11.25;;;;;;;1.32;92.30;99169.42;1570405;87;25961;-81
2021/11/30 07:46:00;;;;;;;20.62;12.65;;;;;;;1.33;92.24;99167.10;1563679;87;28421;-82
2021/11/30 07:48:27;;;;;;;22.27;13.30;;;;;;;1.34;92.23;99162.17;1619507;86;25816;-82
2021/11/30 07:50:56;;;;;;;20.70;13.05;;;;;;;1.35;92.26;99162.00;1612156;86;25832;-80
2021/11/30 07:53:24;;;;;;;20.02;12.25;;;;;;;1.37;92.20;99161.34;1589407;88;26140;-81
2021/11/30 07:55:53;;;;;;;15.00;9.43;;;;;;;1.40;92.23;99158.88;1589827;87;26585;-80
2021/11/30 07:58:21;;;;;;;16.32;10.23;;;;;;;1.41;91.98;99148.15;1585297;88;27118;-81
2021/11/30 08:00:50;;;;;;;19.98;13.70;;;;;;;1.39;91.22;99142.22;1608253;87;25948;-80
2021/11/30 08:03:20;;;;;;;16.30;11.68;;;;;;;1.41;91.82;99141.55;1574808;88;26087;-80
2021/11/30 08:05:48;;;;;;;15.60;10.90;;;;;;;1.44;91.06;99143.88;1605854;86;26023;-80
2021/11/30 08:08:15;;;;;;;15.48;9.35;;;;;;;1.43;91.04;99132.18;1610397;87;25356;-80
2021/11/30 08:10:42;;;;;;;15.25;10.00;;;;;;;1.46;90.69;99128.70;1603673;87;28335;-83
2021/11/30 08:13:09;;;;;;;13.60;10.18;;;;;;;1.48;90.63;99119.30;1566910;88;25986;-80
2021/11/30 08:15:37;;;;;;;14.90;10.03;;;;;;;1.49;90.39;99113.05;1572225;87;25816;-80
2021/11/30 08:18:05;;;;;;;15.13;9.68;;;;;;;1.51;89.78;99109.26;1610094;87;26672;-81
2021/11/30 08:20:33;;;;;;;16.95;12.98;;;;;;;1.55;89.63;99100.02;1614193;86;26437;-81
2021/11/30 08:23:01;;;;;;;16.42;11.68;;;;;;;1.58;88.73;99095.70;1569068;88;28403;-82
2021/11/30 08:25:28;;;;;;;18.07;14.07;;;;;;;1.61;89.31;99097.69;1548012;88;25914;-80
2021/11/30 08:27:56;;;;;;;17.57;13.60;;;;;;;1.61;88.83;99094.56;1605623;87;26389;-81
2021/11/30 08:30:23;;;;;;;13.40;10.23;;;;;;;1.62;89.39;99088.80;1587478;88;26149;-81
2021/11/30 08:32:51;;;;;;;11.40;8.95;;;;;;;1.65;89.22;99085.83;1545931;87;26102;-81
2021/11/30 08:35:18;;;;;;;15.13;9.98;;;;;;;1.61;88.49;99080.53;1569668;88;28325;-82
2021/11/30 08:37:45;;;;;;;21.37;13.55;;;;;;;1.62;88.79;99086.98;1554278;90;25849;-79
2021/11/30 08:40:14;;;;;;;19.77;10.98;;;;;;;1.62;88.45;99080.88;1529197;89;25961;-80
2021/11/30 08:42:41;;;;;;;22.42;14.07;;;;;;;1.62;88.61;99081.70;1545813;89;26096;-80
2021/11/30 08:45:10;;;;;;;16.95;10.30;;;;;;;1.64;88.79;99079.72;1608724;88;25777;-81
2021/11/30 08:47:39;;;;;;;15.48;9.80;;;;;;;1.67;88.85;99080.69;1626953;87;27389;-81
2021/11/30 08:50:13;;;;;;;19.20;12.43;;;;;;;1.72;88.35;99074.42;1605682;87;26229;-80
2021/11/30 08:52:41;;;;;;;12.53;9.10;;;;;;;1.80;88.24;99062.52;1612358;86;26446;-81
2021/11/30 08:55:10;;;;;;;15.05;10.63;;;;;;;1.86;88.49;99055.24;1609611;87;26087;-80
2021/11/30 08:57:37;;;;;;;13.83;10.23;;;;;;;1.88;88.09;99061.70;1613596;86;25869;-81
2021/11/30 09:00:09;;;;;;;17.30;10.78;;;;;;;1.89;87.21;99052.77;1559754;88;27488;-82
2021/11/30 09:02:38;;;;;;;14.83;8.73;;;;;;;1.86;87.19;99046.00;1569314;88;26276;-81
2021/11/30 09:05:10;;;;;;;16.30;11.55;;;;;;;1.85;86.62;99043.55;1585004;87;26086;-81
2021/11/30 09:07:37;;;;;;;13.80;10.80;;;;;;;1.85;86.90;99031.17;1632078;86;26582;-80
2021/11/30 09:10:07;;;;;;;14.80;8.73;;;;;;;1.85;87.28;99033.81;1604074;88;25887;-81
2021/11/30 09:12:34;;;;;;;12.90;7.70;;;;;;;1.88;86.67;99024.22;1566609;89;27637;-81
2021/11/30 09:15:05;;;;;;;11.18;7.50;;;;;;;1.88;86.39;99019.45;1606354;87;26011;-80
2021/11/30 09:17:36;;;;;;;10.28;6.72;;;;;;;1.89;86.25;99011.36;1564350;90;25847;-81
2021/11/30 09:20:01;;;;;;;12.05;7.53;;;;;;;1.92;86.52;99004.91;1563663;88;26574;-80
2021/11/30 09:22:29;;;;;;;10.05;6.62;;;;;;;1.93;86.22;98998.62;1581226;88;25929;-80
2021/11/30 09:24:58;;;;;;;10.93;7.08;;;;;;;1.91;85.70;98993.53;1606238;88;27637;-81
2021/11/30 09:27:26;;;;;;;9.43;6.65;;;;;;;1.92;85.26;98987.27;1585124;88;25944;-81
2021/11/30 09:29:54;;;;;;;9.60;6.33;;;;;;;1.94;85.55;98980.48;1555643;89;25968;-80
2021/11/30 09:32:26;;;;;;;11.80;7.37;;;;;;;1.95;86.12;98975.02;1563520;86;26884;-81
2021/11/30 09:34:50;;;;;;;14.28;8.73;;;;;;;1.98;86.06;98979.14;1605498;88;25935;-82
2021/11/30 09:37:18;;;;;;;12.03;8.73;;;;;;;2.02;85.10;98967.23;1601645;86;27572;-83
2021/11/30 09:39:45;;;;;;;13.28;9.35;;;;;;;2.03;85.57;98962.30;1579665;86;25898;-82
2021/11/30 09:42:13;;;;;;;15.40;10.78;;;;;;;2.02;85.56;98953.55;1618834;87;26299;-83
2021/11/30 09:44:40;;;;;;;13.95;10.03;;;;;;;2.04;86.05;98942.80;1611394;86;26852;-82
2021/11/30 09:47:08;;;;;;;20.32;13.72;;;;;;;2.06;86.16;98944.28;1595283;86;26075;-84
2021/11/30 09:49:36;;;;;;;14.40;10.23;;;;;;;2.05;85.94;98935.22;1604939;87;28692;-83
2021/11/30 09:52:03;;;;;;;19.48;13.05;;;;;;;2.00;86.12;98934.41;1616049;86;26401;-83
2021/11/30 09:54:30;;;;;;;17.02;11.80;;;;;;;1.99;86.37;98927.99;1622242;87;26471;-83
2021/11/30 09:56:58;;;;;;;18.20;12.23;;;;;;;1.97;86.92;98932.11;1598165;88;25958;-83
2021/11/30 09:59:25;;;;;;;17.95;10.05;;;;;;;1.97;87.33;98923.35;1554344;88;25998;-83
2021/11/30 10:01:52;;;;;;;21.15;12.90;;;;;;;1.98;87.95;98922.38;1594852;87;27574;-83
2021/11/30 10:04:19;;;;;;;18.00;10.35;;;;;;;1.98;88.08;98917.09;1616424;87;25833;-83
2021/11/30 10:06:46;;;;;;;19.37;12.03;;;;;;;1.98;88.23;98912.64;1588420;88;26514;-83
2021/11/30 10:09:21;;;;;;;18.55;12.45;;;;;;;1.97;88.32;98904.37;1533131;90;26057;-82
2021/11/30 10:12:01;;;;;;;17.40;11.70;;;;;;;1.97;88.46;98903.55;1593873;88;25967;-83
2021/11/30 10:14:36;;;;;;;14.28;9.20;;;;;;;1.97;88.44;98893.82;1610486;87;28662;-83
2021/11/30 10:17:21;;;;;;;17.10;11.03;;;;;;;1.98;88.79;98891.52;1602888;86;26029;-83
2021/11/30 10:20:00;;;;;;;22.45;14.00;;;;;;;2.00;88.83;98875.49;1562503;89;26015;-82
2021/11/30 10:22:52;;;;;;;20.27;14.03;;;;;;;2.03;89.04;98876.48;1612850;87;26074;-82
2021/11/30 10:25:34;;;;;;;19.55;13.08;;;;;;;2.02;89.06;98857.16;1605040;87;25840;-82
2021/11/30 10:28:07;;;;;;;21.70;13.32;;;;;;;1.98;88.97;98859.83;1591285;89;27431;-84
2021/11/30 10:30:42;;;;;;;20.60;12.40;;;;;;;1.96;89.28;98853.08;1581197;88;25882;-83
2021/11/30 10:33:16;;;;;;;22.52;13.90;;;;;;;1.96;89.71;98847.80;1576231;89;25904;-82
2021/11/30 10:35:46;;;;;;;22.82;13.62;;;;;;;1.95;89.60;98839.53;1607286;87;25844;-83
2021/11/30 10:38:13;;;;;;;20.20;12.50;;;;;;;1.94;89.75;98830.82;1586384;87;26409;-81
2021/11/30 10:40:41;;;;;;;24.85;13.65;;;;;;;1.94;89.97;98825.54;1579547;88;27539;-82
2021/11/30 10:43:10;;;;;;;21.82;13.72;;;;;;;1.95;90.03;98817.92;1574244;88;25905;-81
2021/11/30 10:45:47;;;;;;;22.45;14.13;;;;;;;1.96;90.18;98806.88;1607373;87;26070;-81
2021/11/30 10:48:21;;;;;;;20.45;12.78;;;;;;;1.96;90.21;98803.73;1583066;88;26135;-80
2021/11/30 10:50:52;;;;;;;20.75;12.28;;;;;;;1.98;90.50;98800.42;1545388;87;26116;-82
2021/11/30 10:53:30;;;;;;;21.35;13.45;;;;;;;1.99;90.37;98790.69;1601208;86;27481;-83
2021/11/30 10:56:01;;;;;;;23.92;14.78;;;;;;;2.00;90.41;98790.51;1608630;87;25984;-82
2021/11/30 10:58:32;;;;;;;23.75;14.40;;;;;;;2.04;90.78;98780.40;1618962;86;26376;-82
2021/11/30 11:01:01;;;;;;;23.05;12.13;;;;;;;2.10;91.10;98775.73;1578449;89;26075;-82
2021/11/30 11:03:28;;;;;;;26.37;14.18;;;;;;;2.12;90.88;98760.03;1578593;88;26041;-83
2021/11/30 11:08:48;;;;;;;19.10;13.35;;;;;;;2.10;90.59;98744.03;1623102;86;25874;-82
2021/11/30 11:11:18;;;;;;;20.17;13.53;;;;;;;2.12;91.15;98734.94;1571541;87;26271;-82
2021/11/30 11:13:46;;;;;;;19.63;13.17;;;;;;;2.17;91.19;98730.45;1608088;87;26869;-81
2021/11/30 11:16:37;;;;;;;19.48;13.18;;;;;;;2.20;91.01;98722.98;1601692;88;25878;-82
2021/11/30 11:19:07;;;;;;;19.40;12.43;;;;;;;2.21;91.05;98710.59;1579033;89;27261;-82
2021/11/30 11:21:37;;;;;;;19.57;12.95;;;;;;;2.18;90.57;98702.53;1573889;87;26352;-82
2021/11/30 11:24:09;;;;;;;22.13;13.13;;;;;;;2.20;90.68;98703.17;1571635;87;26432;-82
2021/11/30 11:26:43;;;;;;;19.37;12.70;;;;;;;2.22;90.97;98679.23;1622087;86;26595;-81
2021/11/30 11:29:15;;;;;;;21.97;12.73;;;;;;;2.25;90.95;98677.05;1588914;87;25984;-81
2021/11/30 11:32:03;;;;;;;20.08;12.65;;;;;;;2.25;90.72;98661.20;1575678;89;28227;-81
2021/11/30 11:34:34;;;;;;;18.98;12.53;;;;;;;2.27;90.70;98649.95;1591108;87;26057;-82
2021/11/30 11:37:04;;;;;;;20.05;12.60;;;;;;;2.29;90.58;98639.19;1620796;87;25902;-82
2021/11/30 11:39:32;;;;;;;;;;;;;;;2.28;90.41;98630.96;1635530;86;25906;-81
2021/11/30 11:42:03;;;;;;;18.42;12.55;;;;;;;2.29;90.44;98616.24;1591254;86;25903;-81
2021/11/30 11:44:31;;;;;;;20.40;12.90;;;;;;;2.28;90.56;98606.70;1628650;87;27504;-83
2021/11/30 11:47:05;;;;;;;20.17;12.82;;;;;;;2.31;90.45;98604.16;1615231;86;25915;-80
2021/11/30 11:49:39;;;;;;;20.40;13.13;;;;;;;2.32;90.48;98596.08;1578290;88;26631;-81
2021/11/30 11:52:19;;;;;;;21.15;13.62;;;;;;;2.32;90.21;98584.69;1595217;87;26091;-82
2021/11/30 11:55:06;;;;;;;17.25;11.30;;;;;;;2.29;90.15;98576.62;1630343;86;26707;-79